4B9 weather

Simsbury Airport
Simsbury, Connecticut, United States

Public forecast

Using degrees Fahrenheit for public forecast. Weather courtesy of forecast.io.

Closest aviation weather report (METAR) to Simsbury Airport

Closest report is Bradley International Airport, 4.4 nm (8.2 km) ENE. Retrieved 2020/04/04 00:51 UTC (1 hour ago):

KBDL 040051Z 01012G20KT 10SM -DZ BKN017 OVC024 09/06 A2985 RMK AO2 DZB50 SLP107 P0000 T00890056

Closest aviation forecast (TAF) to Simsbury Airport

Closest forecast is Bradley International Airport, 4.4 nm (8.2 km) ENE. Retrieved 2020-04-04 00:30 UTC (1 hour ago):

TAF KBDL 032326Z 0400/0506 02014G21KT P6SM VCSH OVC025 FM040100 01013G20KT P6SM VCSH OVC015 FM040500 01011G20KT P6SM BKN016 FM041600 02008KT P6SM BKN023 FM042300 08006KT P6SM SCT035 FM050200 13004KT P6SM BKN040